WAT4722 NGTA-ANYN
Flight info
| Callsign | WAT4722 |
|---|---|
| Flight time | 1h 11m |
| Altitude | 30000 |
| Route | BO A578 NI |
| Aircraft | HDJT/L-SABDGRWY/H |
Departure
| Time | 2026-05-04 12:46 |
|---|---|
| Airport | Bonriki International Airport (NGTA) |
Arrival
| Time | 2026-05-04 13:57 |
|---|---|
| Airport | Nauru International Airport (ANYN) |
| Time | Latitude | Longitude | Altitude | Speed | Heading |
|---|---|---|---|---|---|
| 2026-05-04 12:39 | 1.38086 | 173.14600 | 11 ft | 0 kts | 277° |
| 2026-05-04 12:43 | 1.38087 | 173.14597 | 11 ft | 2 kts | 277° |
| 2026-05-04 12:43 | 1.38131 | 173.14555 | 7 ft | 15 kts | 353° |
| 2026-05-04 12:43 | 1.38186 | 173.14485 | 9 ft | 13 kts | 283° |
| 2026-05-04 12:43 | 1.38203 | 173.14378 | 10 ft | 18 kts | 277° |
| 2026-05-04 12:44 | 1.38220 | 173.14245 | 11 ft | 19 kts | 276° |
| 2026-05-04 12:44 | 1.38236 | 173.14119 | 14 ft | 17 kts | 277° |
| 2026-05-04 12:44 | 1.38250 | 173.14011 | 16 ft | 15 kts | 277° |
| 2026-05-04 12:44 | 1.38264 | 173.13906 | 15 ft | 15 kts | 284° |
| 2026-05-04 12:45 | 1.38270 | 173.13846 | 14 ft | 3 kts | 125° |
| 2026-05-04 12:45 | 1.38266 | 173.13874 | 15 ft | 17 kts | 99° |
| 2026-05-04 12:45 | 1.38214 | 173.14289 | 10 ft | 102 kts | 99° |
| 2026-05-04 12:45 | 1.38120 | 173.15177 | 192 ft | 142 kts | 94° |
| 2026-05-04 12:46 | 1.37995 | 173.16212 | 656 ft | 149 kts | 96° |
| 2026-05-04 12:46 | 1.37865 | 173.17231 | 914 ft | 162 kts | 96° |
| 2026-05-04 12:46 | 1.37692 | 173.18458 | 1125 ft | 194 kts | 103° |
| 2026-05-04 12:46 | 1.36924 | 173.19572 | 1808 ft | 200 kts | 143° |
| 2026-05-04 12:47 | 1.35578 | 173.19961 | 2560 ft | 210 kts | 180° |
| 2026-05-04 12:47 | 1.34146 | 173.19460 | 3101 ft | 231 kts | 215° |
| 2026-05-04 12:47 | 1.33204 | 173.18168 | 3884 ft | 236 kts | 250° |
| 2026-05-04 12:47 | 1.32980 | 173.16533 | 4582 ft | 241 kts | 268° |
| 2026-05-04 12:48 | 1.32851 | 173.14856 | 5312 ft | 243 kts | 259° |
| 2026-05-04 12:48 | 1.32412 | 173.13226 | 6073 ft | 244 kts | 249° |
| 2026-05-04 12:48 | 1.31851 | 173.11611 | 6775 ft | 247 kts | 250° |
| 2026-05-04 12:48 | 1.31341 | 173.09959 | 7497 ft | 249 kts | 252° |
| 2026-05-04 12:49 | 1.30861 | 173.08295 | 8299 ft | 249 kts | 252° |
| 2026-05-04 12:49 | 1.30364 | 173.06624 | 9065 ft | 252 kts | 252° |
| 2026-05-04 12:49 | 1.29861 | 173.04958 | 9911 ft | 250 kts | 252° |
| 2026-05-04 12:49 | 1.29359 | 173.03288 | 10629 ft | 252 kts | 252° |
| 2026-05-04 12:50 | 1.28854 | 173.01603 | 11357 ft | 254 kts | 252° |
| 2026-05-04 12:50 | 1.28345 | 172.99904 | 12103 ft | 256 kts | 252° |
| 2026-05-04 12:50 | 1.27832 | 172.98194 | 12857 ft | 257 kts | 252° |
| 2026-05-04 12:50 | 1.27317 | 172.96476 | 13614 ft | 260 kts | 252° |
| 2026-05-04 12:51 | 1.26797 | 172.94740 | 14293 ft | 261 kts | 252° |
| 2026-05-04 12:51 | 1.26272 | 172.92993 | 14947 ft | 265 kts | 252° |
| 2026-05-04 12:51 | 1.25741 | 172.91221 | 15605 ft | 267 kts | 252° |
| 2026-05-04 12:51 | 1.25208 | 172.89445 | 16335 ft | 267 kts | 252° |
| 2026-05-04 12:52 | 1.24671 | 172.87652 | 17010 ft | 270 kts | 252° |
| 2026-05-04 12:52 | 1.24132 | 172.85859 | 17742 ft | 271 kts | 252° |
| 2026-05-04 12:52 | 1.23587 | 172.84040 | 18350 ft | 275 kts | 252° |
| 2026-05-04 12:52 | 1.23036 | 172.82202 | 18953 ft | 277 kts | 252° |
| 2026-05-04 12:53 | 1.22479 | 172.80345 | 19519 ft | 281 kts | 252° |
| 2026-05-04 12:53 | 1.21922 | 172.78490 | 20099 ft | 283 kts | 252° |
| 2026-05-04 12:53 | 1.21355 | 172.76600 | 20703 ft | 286 kts | 252° |
| 2026-05-04 12:53 | 1.20783 | 172.74692 | 21353 ft | 287 kts | 252° |
| 2026-05-04 12:54 | 1.20207 | 172.72775 | 21951 ft | 291 kts | 252° |
| 2026-05-04 12:54 | 1.19623 | 172.70825 | 22557 ft | 294 kts | 252° |
| 2026-05-04 12:54 | 1.19032 | 172.68856 | 23148 ft | 298 kts | 252° |
| 2026-05-04 12:54 | 1.18435 | 172.66863 | 23731 ft | 300 kts | 252° |
| 2026-05-04 12:55 | 1.17832 | 172.64857 | 24257 ft | 303 kts | 252° |
| 2026-05-04 12:55 | 1.17225 | 172.62834 | 24794 ft | 305 kts | 252° |
| 2026-05-04 12:55 | 1.16614 | 172.60796 | 25299 ft | 309 kts | 252° |
| 2026-05-04 12:55 | 1.15995 | 172.58732 | 25816 ft | 311 kts | 252° |
| 2026-05-04 12:56 | 1.15368 | 172.56643 | 26278 ft | 316 kts | 252° |
| 2026-05-04 12:56 | 1.14737 | 172.54542 | 26852 ft | 317 kts | 252° |
| 2026-05-04 12:56 | 1.14102 | 172.52424 | 27362 ft | 319 kts | 252° |
| 2026-05-04 12:56 | 1.13462 | 172.50295 | 27848 ft | 322 kts | 252° |
| 2026-05-04 12:57 | 1.12815 | 172.48136 | 28292 ft | 326 kts | 253° |
| 2026-05-04 12:57 | 1.12161 | 172.45956 | 28738 ft | 329 kts | 253° |
| 2026-05-04 12:57 | 1.11501 | 172.43758 | 29218 ft | 331 kts | 253° |
| 2026-05-04 12:57 | 1.11062 | 172.42294 | 29507 ft | 333 kts | 252° |
| 2026-05-04 12:58 | 1.10392 | 172.40064 | 29849 ft | 339 kts | 252° |
| 2026-05-04 12:58 | 1.09699 | 172.37757 | 29854 ft | 354 kts | 252° |
| 2026-05-04 12:58 | 1.08980 | 172.35361 | 29860 ft | 367 kts | 252° |
| 2026-05-04 12:58 | 1.08236 | 172.32881 | 29864 ft | 378 kts | 253° |
| 2026-05-04 12:59 | 1.07472 | 172.30334 | 29866 ft | 387 kts | 252° |
| 2026-05-04 12:59 | 1.05894 | 172.25078 | 29867 ft | 402 kts | 253° |
| 2026-05-04 13:00 | 1.04265 | 172.19652 | 29866 ft | 412 kts | 252° |
| 2026-05-04 13:00 | 1.02602 | 172.14113 | 29867 ft | 419 kts | 253° |
| 2026-05-04 13:01 | 1.00918 | 172.08505 | 29862 ft | 423 kts | 253° |
| 2026-05-04 13:01 | 0.99223 | 172.02861 | 29860 ft | 424 kts | 253° |
| 2026-05-04 13:02 | 0.97532 | 171.97226 | 29860 ft | 424 kts | 252° |
| 2026-05-04 13:02 | 0.95846 | 171.91611 | 29860 ft | 420 kts | 252° |
| 2026-05-04 13:03 | 0.94157 | 171.85990 | 29861 ft | 424 kts | 253° |
| 2026-05-04 13:03 | 0.92462 | 171.80344 | 29861 ft | 423 kts | 252° |
| 2026-05-04 13:04 | 0.90767 | 171.74705 | 29860 ft | 424 kts | 252° |
| 2026-05-04 13:04 | 0.89074 | 171.69065 | 29862 ft | 423 kts | 252° |
| 2026-05-04 13:05 | 0.87379 | 171.63423 | 29861 ft | 425 kts | 252° |
| 2026-05-04 13:05 | 0.85683 | 171.57779 | 29861 ft | 424 kts | 252° |
| 2026-05-04 13:06 | 0.83996 | 171.52165 | 29861 ft | 425 kts | 252° |
| 2026-05-04 13:06 | 0.82302 | 171.46524 | 29860 ft | 425 kts | 252° |
| 2026-05-04 13:07 | 0.80604 | 171.40875 | 29862 ft | 424 kts | 252° |
| 2026-05-04 13:07 | 0.78908 | 171.35231 | 29861 ft | 425 kts | 252° |
| 2026-05-04 13:08 | 0.77211 | 171.29582 | 29861 ft | 424 kts | 252° |
| 2026-05-04 13:08 | 0.75512 | 171.23929 | 29861 ft | 426 kts | 252° |
| 2026-05-04 13:09 | 0.73812 | 171.18273 | 29859 ft | 425 kts | 252° |
| 2026-05-04 13:09 | 0.72108 | 171.12603 | 29861 ft | 426 kts | 252° |
| 2026-05-04 13:10 | 0.70407 | 171.06943 | 29860 ft | 426 kts | 253° |
| 2026-05-04 13:10 | 0.68703 | 171.01276 | 29860 ft | 425 kts | 252° |
| 2026-05-04 13:11 | 0.67002 | 170.95615 | 29859 ft | 426 kts | 252° |
| 2026-05-04 13:11 | 0.65299 | 170.89950 | 29861 ft | 425 kts | 252° |
| 2026-05-04 13:12 | 0.63596 | 170.84287 | 29860 ft | 426 kts | 253° |
| 2026-05-04 13:12 | 0.61905 | 170.78661 | 29859 ft | 425 kts | 252° |
| 2026-05-04 13:13 | 0.60201 | 170.72994 | 29860 ft | 426 kts | 252° |
| 2026-05-04 13:13 | 0.58499 | 170.67331 | 29860 ft | 426 kts | 253° |
| 2026-05-04 13:14 | 0.56794 | 170.61661 | 29859 ft | 425 kts | 252° |
| 2026-05-04 13:14 | 0.55092 | 170.56000 | 29861 ft | 426 kts | 252° |
| 2026-05-04 13:15 | 0.53389 | 170.50339 | 29853 ft | 425 kts | 253° |
| 2026-05-04 13:15 | 0.51684 | 170.44668 | 29852 ft | 426 kts | 253° |
| 2026-05-04 13:16 | 0.49981 | 170.39004 | 29856 ft | 426 kts | 253° |
| 2026-05-04 13:16 | 0.48276 | 170.33333 | 29857 ft | 426 kts | 253° |
| 2026-05-04 13:17 | 0.46573 | 170.27672 | 29853 ft | 426 kts | 253° |
| 2026-05-04 13:17 | 0.44869 | 170.22004 | 29852 ft | 425 kts | 253° |
| 2026-05-04 13:18 | 0.43165 | 170.16339 | 29854 ft | 426 kts | 253° |
| 2026-05-04 13:18 | 0.41460 | 170.10670 | 29853 ft | 426 kts | 253° |
| 2026-05-04 13:19 | 0.39752 | 170.04993 | 29850 ft | 427 kts | 253° |
| 2026-05-04 13:19 | 0.38047 | 169.99324 | 29850 ft | 426 kts | 253° |
| 2026-05-04 13:20 | 0.36340 | 169.93647 | 29850 ft | 426 kts | 253° |
| 2026-05-04 13:20 | 0.34634 | 169.87978 | 29850 ft | 427 kts | 253° |
| 2026-05-04 13:21 | 0.32928 | 169.82304 | 29850 ft | 426 kts | 253° |
| 2026-05-04 13:21 | 0.31220 | 169.76628 | 29851 ft | 427 kts | 253° |
| 2026-05-04 13:22 | 0.29512 | 169.70951 | 29849 ft | 427 kts | 253° |
| 2026-05-04 13:22 | 0.27803 | 169.65268 | 29850 ft | 427 kts | 253° |
| 2026-05-04 13:23 | 0.26107 | 169.59628 | 29854 ft | 427 kts | 253° |
| 2026-05-04 13:23 | 0.24397 | 169.53946 | 29853 ft | 427 kts | 253° |
| 2026-05-04 13:24 | 0.22689 | 169.48268 | 29853 ft | 427 kts | 253° |
| 2026-05-04 13:24 | 0.20980 | 169.42587 | 29850 ft | 426 kts | 253° |
| 2026-05-04 13:25 | 0.18415 | 169.34063 | 29849 ft | 427 kts | 253° |
| 2026-05-04 13:25 | 0.16707 | 169.28384 | 29851 ft | 428 kts | 253° |
| 2026-05-04 13:26 | 0.14997 | 169.22699 | 29849 ft | 427 kts | 253° |
| 2026-05-04 13:26 | 0.13286 | 169.17013 | 29849 ft | 427 kts | 253° |
| 2026-05-04 13:27 | 0.11578 | 169.11335 | 29853 ft | 427 kts | 253° |
| 2026-05-04 13:27 | 0.09866 | 169.05647 | 29853 ft | 427 kts | 253° |
| 2026-05-04 13:28 | 0.08161 | 168.99980 | 29834 ft | 419 kts | 253° |
| 2026-05-04 13:28 | 0.07347 | 168.97273 | 29455 ft | 396 kts | 253° |
| 2026-05-04 13:28 | 0.06574 | 168.94705 | 29088 ft | 377 kts | 253° |
| 2026-05-04 13:29 | 0.05837 | 168.92255 | 28719 ft | 360 kts | 253° |
| 2026-05-04 13:29 | 0.05130 | 168.89904 | 28352 ft | 347 kts | 253° |
| 2026-05-04 13:29 | 0.04448 | 168.87637 | 27994 ft | 335 kts | 253° |
| 2026-05-04 13:29 | 0.03789 | 168.85447 | 27638 ft | 324 kts | 253° |
| 2026-05-04 13:30 | 0.03148 | 168.83318 | 27287 ft | 316 kts | 253° |
| 2026-05-04 13:30 | 0.02524 | 168.81241 | 26942 ft | 309 kts | 253° |
| 2026-05-04 13:30 | 0.01908 | 168.79197 | 26601 ft | 306 kts | 253° |
| 2026-05-04 13:30 | 0.01295 | 168.77158 | 26269 ft | 308 kts | 253° |
| 2026-05-04 13:31 | 0.00686 | 168.75134 | 25946 ft | 309 kts | 253° |
| 2026-05-04 13:31 | 0.00061 | 168.73055 | 25619 ft | 308 kts | 253° |
| 2026-05-04 13:31 | -0.00548 | 168.71032 | 25298 ft | 308 kts | 253° |
| 2026-05-04 13:31 | -0.01165 | 168.68981 | 24982 ft | 308 kts | 253° |
| 2026-05-04 13:32 | -0.01783 | 168.66927 | 24672 ft | 309 kts | 253° |
| 2026-05-04 13:32 | -0.02401 | 168.64874 | 24364 ft | 309 kts | 253° |
| 2026-05-04 13:32 | -0.03018 | 168.62821 | 24060 ft | 309 kts | 253° |
| 2026-05-04 13:33 | -0.04231 | 168.58790 | 23472 ft | 309 kts | 253° |
| 2026-05-04 13:33 | -0.04851 | 168.56731 | 23123 ft | 310 kts | 253° |
| 2026-05-04 13:33 | -0.05471 | 168.54671 | 22766 ft | 310 kts | 253° |
| 2026-05-04 13:33 | -0.06092 | 168.52606 | 22413 ft | 311 kts | 253° |
| 2026-05-04 13:34 | -0.06714 | 168.50538 | 22065 ft | 311 kts | 253° |
| 2026-05-04 13:34 | -0.07338 | 168.48463 | 21719 ft | 312 kts | 253° |
| 2026-05-04 13:34 | -0.07963 | 168.46389 | 21380 ft | 312 kts | 253° |
| 2026-05-04 13:34 | -0.08588 | 168.44309 | 21044 ft | 313 kts | 253° |
| 2026-05-04 13:35 | -0.09215 | 168.42225 | 20709 ft | 314 kts | 253° |
| 2026-05-04 13:35 | -0.10473 | 168.38043 | 20054 ft | 315 kts | 253° |
| 2026-05-04 13:35 | -0.11104 | 168.35949 | 19733 ft | 315 kts | 253° |
| 2026-05-04 13:36 | -0.11735 | 168.33847 | 19415 ft | 316 kts | 253° |
| 2026-05-04 13:36 | -0.12368 | 168.31744 | 19101 ft | 317 kts | 253° |
| 2026-05-04 13:36 | -0.13003 | 168.29634 | 18790 ft | 317 kts | 253° |
| 2026-05-04 13:36 | -0.13630 | 168.27549 | 18485 ft | 318 kts | 253° |
| 2026-05-04 13:37 | -0.14267 | 168.25434 | 18179 ft | 318 kts | 253° |
| 2026-05-04 13:37 | -0.14905 | 168.23312 | 17834 ft | 319 kts | 253° |
| 2026-05-04 13:37 | -0.15544 | 168.21189 | 17478 ft | 319 kts | 253° |
| 2026-05-04 13:37 | -0.15976 | 168.19751 | 17240 ft | 320 kts | 253° |
| 2026-05-04 13:38 | -0.16824 | 168.16933 | 16789 ft | 320 kts | 253° |
| 2026-05-04 13:38 | -0.17460 | 168.14818 | 16446 ft | 317 kts | 253° |
| 2026-05-04 13:38 | -0.18094 | 168.12714 | 16110 ft | 316 kts | 253° |
| 2026-05-04 13:38 | -0.18723 | 168.10622 | 15826 ft | 314 kts | 253° |
| 2026-05-04 13:39 | -0.19348 | 168.08542 | 15544 ft | 312 kts | 253° |
| 2026-05-04 13:39 | -0.19972 | 168.06471 | 15262 ft | 311 kts | 253° |
| 2026-05-04 13:39 | -0.20593 | 168.04406 | 14981 ft | 310 kts | 253° |
| 2026-05-04 13:39 | -0.21213 | 168.02346 | 14706 ft | 309 kts | 253° |
| 2026-05-04 13:40 | -0.21829 | 168.00297 | 14434 ft | 307 kts | 253° |
| 2026-05-04 13:40 | -0.22443 | 167.98255 | 14186 ft | 306 kts | 253° |
| 2026-05-04 13:40 | -0.23053 | 167.96229 | 13960 ft | 305 kts | 253° |
| 2026-05-04 13:40 | -0.23667 | 167.94199 | 13736 ft | 305 kts | 251° |
| 2026-05-04 13:41 | -0.24494 | 167.92250 | 13493 ft | 305 kts | 243° |
| 2026-05-04 13:41 | -0.25501 | 167.90408 | 13040 ft | 300 kts | 240° |
| 2026-05-04 13:41 | -0.26466 | 167.88561 | 12340 ft | 298 kts | 244° |
| 2026-05-04 13:42 | -0.28178 | 167.84828 | 10978 ft | 293 kts | 244° |
| 2026-05-04 13:42 | -0.29058 | 167.83003 | 10321 ft | 291 kts | 243° |
| 2026-05-04 13:42 | -0.29933 | 167.81191 | 9697 ft | 288 kts | 243° |
| 2026-05-04 13:42 | -0.30787 | 167.79394 | 9007 ft | 285 kts | 243° |
| 2026-05-04 13:43 | -0.31633 | 167.77613 | 8343 ft | 282 kts | 243° |
| 2026-05-04 13:43 | -0.32474 | 167.75849 | 7680 ft | 281 kts | 243° |
| 2026-05-04 13:43 | -0.33312 | 167.74096 | 7052 ft | 279 kts | 243° |
| 2026-05-04 13:43 | -0.34142 | 167.72353 | 6433 ft | 276 kts | 243° |
| 2026-05-04 13:44 | -0.34966 | 167.70625 | 5789 ft | 275 kts | 243° |
| 2026-05-04 13:44 | -0.35784 | 167.68908 | 5165 ft | 273 kts | 243° |
| 2026-05-04 13:44 | -0.36597 | 167.67204 | 4554 ft | 271 kts | 243° |
| 2026-05-04 13:44 | -0.37391 | 167.65538 | 3944 ft | 268 kts | 243° |
| 2026-05-04 13:45 | -0.38188 | 167.63867 | 3355 ft | 265 kts | 243° |
| 2026-05-04 13:45 | -0.38975 | 167.62216 | 2784 ft | 262 kts | 243° |
| 2026-05-04 13:45 | -0.39757 | 167.60575 | 2185 ft | 263 kts | 243° |
| 2026-05-04 13:45 | -0.40547 | 167.58921 | 2076 ft | 266 kts | 243° |
| 2026-05-04 13:46 | -0.41340 | 167.57257 | 2076 ft | 264 kts | 243° |
| 2026-05-04 13:46 | -0.42130 | 167.55598 | 2079 ft | 265 kts | 243° |
| 2026-05-04 13:46 | -0.42924 | 167.53934 | 2004 ft | 265 kts | 243° |
| 2026-05-04 13:46 | -0.43714 | 167.52277 | 1995 ft | 263 kts | 243° |
| 2026-05-04 13:47 | -0.44502 | 167.50624 | 1996 ft | 264 kts | 243° |
| 2026-05-04 13:47 | -0.45293 | 167.48966 | 1997 ft | 265 kts | 243° |
| 2026-05-04 13:47 | -0.46082 | 167.47309 | 1995 ft | 263 kts | 243° |
| 2026-05-04 13:47 | -0.46870 | 167.45658 | 1996 ft | 263 kts | 243° |
| 2026-05-04 13:48 | -0.47659 | 167.44002 | 1998 ft | 265 kts | 243° |
| 2026-05-04 13:48 | -0.48451 | 167.42340 | 1998 ft | 265 kts | 243° |
| 2026-05-04 13:48 | -0.49242 | 167.40681 | 1994 ft | 265 kts | 243° |
| 2026-05-04 13:48 | -0.50035 | 167.39017 | 1995 ft | 266 kts | 243° |
| 2026-05-04 13:49 | -0.50828 | 167.37354 | 1992 ft | 264 kts | 243° |
| 2026-05-04 13:49 | -0.51617 | 167.35699 | 1991 ft | 264 kts | 243° |
| 2026-05-04 13:49 | -0.52405 | 167.34046 | 1994 ft | 264 kts | 243° |
| 2026-05-04 13:49 | -0.53193 | 167.32393 | 1992 ft | 264 kts | 243° |
| 2026-05-04 13:50 | -0.53982 | 167.30737 | 1993 ft | 263 kts | 243° |
| 2026-05-04 13:50 | -0.54771 | 167.29083 | 1991 ft | 265 kts | 243° |
| 2026-05-04 13:50 | -0.55565 | 167.27419 | 1992 ft | 265 kts | 243° |
| 2026-05-04 13:50 | -0.56356 | 167.25757 | 1991 ft | 265 kts | 243° |
| 2026-05-04 13:51 | -0.57148 | 167.24098 | 1989 ft | 265 kts | 243° |
| 2026-05-04 13:51 | -0.57939 | 167.22436 | 1990 ft | 265 kts | 243° |
| 2026-05-04 13:51 | -0.58732 | 167.20775 | 1991 ft | 265 kts | 243° |
| 2026-05-04 13:51 | -0.59523 | 167.19114 | 1991 ft | 264 kts | 243° |
| 2026-05-04 13:52 | -0.61104 | 167.15798 | 1988 ft | 265 kts | 243° |
| 2026-05-04 13:52 | -0.61895 | 167.14139 | 1989 ft | 265 kts | 243° |
| 2026-05-04 13:52 | -0.62418 | 167.13040 | 1992 ft | 265 kts | 243° |
| 2026-05-04 13:53 | -0.63209 | 167.11381 | 1990 ft | 265 kts | 243° |
| 2026-05-04 13:53 | -0.64001 | 167.09719 | 1991 ft | 264 kts | 243° |
| 2026-05-04 13:53 | -0.64700 | 167.08020 | 1990 ft | 266 kts | 254° |
| 2026-05-04 13:54 | -0.64624 | 167.04357 | 1998 ft | 266 kts | 287° |
| 2026-05-04 13:54 | -0.63889 | 167.02760 | 1992 ft | 242 kts | 302° |
| 2026-05-04 13:54 | -0.61886 | 167.00321 | 1896 ft | 219 kts | 309° |
| 2026-05-04 13:55 | -0.60928 | 166.99178 | 1646 ft | 211 kts | 309° |
| 2026-05-04 13:55 | -0.58989 | 166.96896 | 1095 ft | 216 kts | 309° |
| 2026-05-04 13:55 | -0.58029 | 166.95771 | 820 ft | 209 kts | 309° |
| 2026-05-04 13:56 | -0.57122 | 166.94706 | 578 ft | 197 kts | 309° |
| 2026-05-04 13:56 | -0.56285 | 166.93723 | 333 ft | 173 kts | 309° |
| 2026-05-04 13:56 | -0.54951 | 166.92144 | 30 ft | 123 kts | 309° |
| 2026-05-04 13:57 | -0.54540 | 166.91652 | 27 ft | 33 kts | 308° |
| 2026-05-04 13:57 | -0.54445 | 166.91561 | 26 ft | 10 kts | 20° |
| 2026-05-04 13:58 | -0.54452 | 166.91700 | 27 ft | 0 kts | 134° |